createdAt,value
2022-10-28T00:01:28.798Z,3.10
2022-10-28T00:04:01.170Z,3.10
2022-10-28T00:06:33.614Z,3.33
2022-10-28T00:09:00.778Z,3.00
2022-10-28T00:11:33.433Z,3.13
2022-10-28T00:14:04.076Z,2.92
2022-10-28T00:16:33.401Z,3.25
2022-10-28T00:19:01.524Z,3.13
2022-10-28T00:21:31.480Z,3.00
2022-10-28T00:23:58.278Z,3.47
2022-10-28T00:26:29.730Z,3.15
2022-10-28T00:29:02.775Z,2.78
2022-10-28T00:31:30.833Z,2.85
2022-10-28T00:33:59.506Z,3.35
2022-10-28T00:36:29.196Z,3.13
2022-10-28T00:38:56.645Z,3.40
2022-10-28T00:41:32.826Z,3.88
2022-10-28T00:44:22.340Z,3.28
2022-10-28T00:46:53.163Z,3.00
2022-10-28T00:49:32.245Z,3.47
2022-10-28T00:52:05.864Z,3.25
2022-10-28T00:54:33.157Z,2.40
2022-10-28T00:59:36.608Z,2.90
2022-10-28T01:02:05.347Z,2.90
2022-10-28T01:04:32.659Z,3.00
2022-10-28T01:07:01.257Z,3.17
2022-10-28T01:09:28.498Z,3.00
2022-10-28T01:12:09.776Z,2.88
2022-10-28T01:14:59.451Z,3.25
2022-10-28T01:17:30.730Z,2.95
2022-10-28T01:20:18.663Z,3.22
2022-10-28T01:23:05.833Z,3.10
2022-10-28T01:25:38.585Z,3.42
2022-10-28T01:28:48.762Z,2.65
2022-10-28T01:31:29.650Z,3.03
2022-10-28T01:34:27.728Z,2.90
2022-10-28T01:37:20.840Z,3.00
2022-10-28T01:39:53.859Z,2.45
2022-10-28T01:42:32.665Z,2.53
2022-10-28T01:45:18.029Z,2.78
2022-10-28T01:48:02.129Z,2.70
2022-10-28T01:51:06.308Z,2.97
2022-10-28T01:53:38.401Z,3.05
2022-10-28T01:56:10.805Z,2.78
2022-10-28T01:58:39.695Z,3.08
2022-10-28T02:01:09.132Z,2.78
2022-10-28T02:03:36.349Z,4.15
2022-10-28T02:06:07.703Z,2.92
2022-10-28T02:09:05.392Z,2.97
2022-10-28T02:11:45.825Z,3.50
2022-10-28T02:14:32.724Z,2.88
2022-10-28T02:17:11.365Z,3.20
2022-10-28T02:20:16.533Z,2.90
2022-10-28T02:22:49.187Z,3.47
2022-10-28T02:25:32.382Z,2.78
2022-10-28T02:28:09.033Z,2.72
2022-10-28T02:30:57.939Z,3.47
2022-10-28T02:33:29.386Z,3.00
2022-10-28T02:36:00.601Z,2.85
2022-10-28T02:38:39.878Z,3.17
2022-10-28T02:41:17.284Z,3.33
2022-10-28T02:43:45.630Z,3.30
2022-10-28T02:46:14.574Z,3.30
2022-10-28T02:48:46.151Z,2.95
2022-10-28T02:51:19.892Z,2.63
2022-10-28T02:54:18.085Z,2.92
2022-10-28T02:57:13.581Z,3.15
2022-10-28T02:59:40.712Z,2.95
2022-10-28T03:02:08.271Z,2.88
2022-10-28T03:04:34.976Z,3.00
2022-10-28T03:07:01.647Z,3.15
2022-10-28T03:09:28.305Z,2.97
2022-10-28T03:11:54.978Z,3.03
2022-10-28T03:14:21.635Z,3.30
2022-10-28T03:16:48.289Z,3.22
2022-10-28T03:19:14.941Z,2.90
2022-10-28T03:21:41.601Z,3.00
2022-10-28T03:24:08.296Z,2.78
2022-10-28T03:26:34.944Z,2.53
2022-10-28T03:29:01.596Z,2.88
2022-10-28T03:31:28.320Z,2.50
2022-10-28T03:33:55.136Z,2.70
2022-10-28T03:36:21.814Z,2.83
2022-10-28T03:38:48.514Z,3.78
2022-10-28T03:41:15.201Z,5.57
2022-10-28T03:43:41.908Z,5.82
2022-10-28T03:46:08.629Z,4.30
2022-10-28T03:48:35.477Z,4.40
2022-10-28T03:51:02.168Z,3.00
2022-10-28T03:53:31.166Z,2.22
2022-10-28T03:56:02.495Z,2.40
2022-10-28T03:58:29.851Z,2.85
2022-10-28T04:03:24.847Z,2.85
2022-10-28T04:05:51.843Z,2.80
2022-10-28T04:08:19.304Z,2.88
2022-10-28T04:10:47.506Z,2.90
2022-10-28T04:13:15.663Z,3.22
2022-10-28T04:15:42.806Z,2.90
2022-10-28T04:18:09.891Z,3.40
2022-10-28T04:20:36.847Z,3.55
2022-10-28T04:23:04.013Z,3.13
2022-10-28T04:27:57.759Z,3.13
2022-10-28T04:30:24.706Z,3.00
2022-10-28T04:32:51.394Z,3.33
2022-10-28T04:35:18.223Z,3.10
2022-10-28T04:37:45.247Z,3.10
2022-10-28T04:40:12.365Z,4.68
2022-10-28T04:42:39.039Z,3.92
2022-10-28T04:45:06.385Z,3.47
2022-10-28T04:47:33.132Z,3.65
2022-10-28T04:49:59.830Z,2.97
2022-10-28T04:52:26.500Z,4.28
2022-10-28T04:54:53.188Z,3.75
2022-10-28T04:57:19.844Z,4.30
2022-10-28T04:59:46.755Z,3.67
2022-10-28T05:02:13.665Z,3.63
2022-10-28T05:04:40.545Z,4.03
2022-10-28T05:07:07.349Z,3.33
2022-10-28T05:09:34.082Z,4.32
2022-10-28T05:12:00.771Z,3.63
2022-10-28T05:14:27.545Z,3.10
2022-10-28T05:16:54.339Z,4.05
2022-10-28T05:19:21.028Z,3.55
2022-10-28T05:21:47.692Z,4.50
2022-10-28T05:24:14.392Z,3.67
2022-10-28T05:26:41.084Z,3.95
2022-10-28T05:29:07.831Z,3.42
2022-10-28T05:31:34.523Z,3.40
2022-10-28T05:34:01.226Z,3.13
2022-10-28T05:36:27.904Z,3.05
2022-10-28T05:38:54.627Z,4.55
2022-10-28T05:41:23.208Z,6.78
2022-10-28T05:43:51.535Z,6.90
2022-10-28T05:46:18.199Z,9.05
2022-10-28T05:48:44.982Z,3.42
2022-10-28T05:51:11.666Z,3.38
2022-10-28T05:53:38.377Z,4.85
2022-10-28T05:56:05.287Z,3.78
2022-10-28T05:58:31.948Z,3.83
2022-10-28T06:00:58.649Z,4.63
2022-10-28T06:03:30.099Z,5.97
2022-10-28T06:05:58.494Z,4.35
2022-10-28T06:08:25.216Z,3.70
2022-10-28T06:10:52.350Z,3.47
2022-10-28T06:13:19.719Z,3.45
2022-10-28T06:18:18.900Z,3.05
2022-10-28T06:20:56.776Z,3.00
2022-10-28T06:23:24.890Z,2.88
2022-10-28T06:25:59.385Z,3.47
2022-10-28T06:28:26.768Z,3.13
2022-10-28T06:33:20.054Z,3.13
2022-10-28T06:35:46.725Z,3.08
2022-10-28T06:38:13.399Z,3.05
2022-10-28T06:40:40.058Z,3.58
2022-10-28T06:43:08.306Z,3.58
2022-10-28T06:45:35.051Z,3.78
2022-10-28T06:48:05.424Z,3.53
2022-10-28T06:50:33.702Z,3.33
2022-10-28T06:53:00.403Z,3.70
2022-10-28T06:55:28.214Z,3.80
2022-10-28T06:57:58.400Z,3.17
2022-10-28T07:00:26.748Z,3.28
2022-10-28T07:02:54.531Z,3.25
2022-10-28T07:05:23.500Z,3.60
2022-10-28T07:07:50.187Z,2.85
2022-10-28T07:10:16.992Z,3.75
2022-10-28T07:12:43.668Z,3.03
2022-10-28T07:15:10.811Z,3.03
2022-10-28T07:17:37.568Z,3.10
2022-10-28T07:20:04.841Z,3.00
2022-10-28T07:22:31.494Z,4.55
2022-10-28T07:24:58.146Z,2.70
2022-10-28T07:27:24.864Z,2.83
2022-10-28T07:29:51.547Z,3.90
2022-10-28T07:32:18.272Z,3.55
2022-10-28T07:34:44.932Z,2.88
2022-10-28T07:37:12.874Z,3.00
2022-10-28T07:39:39.769Z,3.05
2022-10-28T07:42:06.440Z,3.28
2022-10-28T07:44:33.100Z,2.78
2022-10-28T07:46:59.776Z,2.28
2022-10-28T07:49:26.454Z,2.35
2022-10-28T07:51:53.266Z,2.67
2022-10-28T07:54:19.968Z,2.40
2022-10-28T07:56:46.636Z,3.10
2022-10-28T07:59:13.525Z,2.30
2022-10-28T08:01:40.309Z,2.70
2022-10-28T08:04:07.093Z,2.65
2022-10-28T08:06:35.109Z,2.60
2022-10-28T08:09:02.436Z,2.20
2022-10-28T08:13:56.328Z,2.22
2022-10-28T08:16:23.505Z,3.40
2022-10-28T08:18:50.352Z,2.00
2022-10-28T08:21:17.323Z,2.60
2022-10-28T08:23:47.049Z,2.75
2022-10-28T08:26:15.764Z,2.67
2022-10-28T08:28:42.942Z,2.15
2022-10-28T08:31:10.266Z,2.60
2022-10-28T08:33:39.590Z,2.63
2022-10-28T08:36:07.614Z,2.35
2022-10-28T08:38:34.304Z,2.70
2022-10-28T08:41:17.619Z,1.83
2022-10-28T08:44:06.009Z,2.13
2022-10-28T08:46:47.822Z,1.90
2022-10-28T08:49:18.463Z,1.80
2022-10-28T08:51:58.718Z,1.80
2022-10-28T08:54:40.052Z,1.98
2022-10-28T08:57:18.031Z,2.38
2022-10-28T08:59:46.445Z,2.50
2022-10-28T09:02:23.431Z,2.35
2022-10-28T09:05:14.455Z,2.03
2022-10-28T09:07:41.141Z,2.15
2022-10-28T09:10:08.141Z,2.40
2022-10-28T09:12:52.069Z,2.17
2022-10-28T09:18:24.400Z,1.65
2022-10-28T09:20:54.987Z,1.80
2022-10-28T09:23:22.363Z,2.42
2022-10-28T09:26:06.868Z,2.47
2022-10-28T09:28:39.452Z,2.03
2022-10-28T09:31:20.823Z,1.92
2022-10-28T09:34:17.534Z,1.88
2022-10-28T09:36:51.579Z,1.80
2022-10-28T09:39:25.374Z,2.10
2022-10-28T09:41:57.134Z,1.70
2022-10-28T09:44:41.857Z,1.75
2022-10-28T09:47:46.399Z,2.85
2022-10-28T09:50:17.546Z,1.30
2022-10-28T09:53:14.646Z,1.70
2022-10-28T09:55:41.311Z,1.40
2022-10-28T09:58:12.244Z,1.55
2022-10-28T10:00:39.455Z,1.70
2022-10-28T10:05:37.786Z,1.33
2022-10-28T10:08:05.675Z,1.40
2022-10-28T10:10:45.600Z,1.70
2022-10-28T10:13:14.299Z,1.58
2022-10-28T10:15:46.339Z,1.92
2022-10-28T10:18:18.757Z,1.52
2022-10-28T10:20:49.342Z,1.40
2022-10-28T10:23:34.025Z,1.58
2022-10-28T10:26:06.875Z,1.50
2022-10-28T10:28:43.699Z,1.35
2022-10-28T10:31:21.950Z,1.40
2022-10-28T10:33:51.020Z,1.48
2022-10-28T10:36:21.169Z,1.30
2022-10-28T10:38:51.770Z,1.42
2022-10-28T10:41:42.910Z,1.42
2022-10-28T10:44:21.902Z,1.30
2022-10-28T10:47:05.866Z,1.45
2022-10-28T10:49:37.007Z,1.40
2022-10-28T10:52:17.271Z,1.70
2022-10-28T10:54:57.567Z,1.20
2022-10-28T10:57:26.195Z,1.40
2022-10-28T10:59:55.223Z,1.52
2022-10-28T11:02:30.809Z,1.23
2022-10-28T11:05:04.364Z,1.30
2022-10-28T11:07:32.732Z,1.10
2022-10-28T11:10:00.581Z,1.15
2022-10-28T11:12:35.654Z,1.70
2022-10-28T11:15:19.596Z,1.30
2022-10-28T11:18:01.782Z,1.42
2022-10-28T11:20:48.684Z,2.83
2022-10-28T11:23:31.864Z,1.23
2022-10-28T11:26:07.164Z,1.38
2022-10-28T11:29:01.370Z,1.40
2022-10-28T11:31:46.038Z,1.20
2022-10-28T11:35:03.767Z,1.23
2022-10-28T11:37:47.348Z,1.33
2022-10-28T11:40:33.637Z,1.38
2022-10-28T11:43:11.946Z,1.33
2022-10-28T11:46:11.094Z,1.55
2022-10-28T11:49:13.492Z,1.08
2022-10-28T11:51:51.203Z,2.05
2022-10-28T11:57:10.020Z,0.95
2022-10-28T11:59:58.030Z,1.33
2022-10-28T12:02:42.628Z,1.25
2022-10-28T12:05:22.402Z,1.30
2022-10-28T12:08:16.341Z,1.30
2022-10-28T12:10:49.504Z,1.13
2022-10-28T12:13:43.621Z,1.55
2022-10-28T12:16:27.549Z,1.33
2022-10-28T12:19:28.491Z,1.10
2022-10-28T12:22:17.910Z,1.00
2022-10-28T12:24:45.792Z,1.20
2022-10-28T12:27:19.546Z,1.85
2022-10-28T12:29:51.106Z,1.38
2022-10-28T12:32:26.865Z,1.20
2022-10-28T12:35:21.926Z,0.98
2022-10-28T12:37:57.312Z,1.40
2022-10-28T12:40:33.849Z,1.27
2022-10-28T12:43:29.257Z,1.55
2022-10-28T12:45:56.744Z,1.15
2022-10-28T12:48:40.268Z,1.27
2022-10-28T12:51:17.733Z,1.27
2022-10-28T12:54:01.344Z,1.38
2022-10-28T12:56:36.444Z,1.23
2022-10-28T12:59:15.334Z,1.35
2022-10-28T13:01:45.659Z,1.00
2022-10-28T13:04:13.276Z,2.75
2022-10-28T13:07:02.974Z,1.58
2022-10-28T13:09:41.635Z,1.55
2022-10-28T13:12:22.282Z,1.17
2022-10-28T13:15:22.364Z,1.20
2022-10-28T13:18:23.177Z,1.08
2022-10-28T13:21:15.354Z,1.13
2022-10-28T13:24:15.204Z,1.20
2022-10-28T13:26:44.702Z,1.00
2022-10-28T13:29:25.855Z,1.30
2022-10-28T13:31:53.810Z,1.27
2022-10-28T13:34:29.255Z,0.90
2022-10-28T13:37:03.281Z,1.25
2022-10-28T13:39:31.595Z,1.10
2022-10-28T13:42:13.456Z,1.92
2022-10-28T13:44:49.064Z,1.42
2022-10-28T13:47:34.699Z,1.70
2022-10-28T13:50:07.885Z,2.10
2022-10-28T13:52:45.004Z,1.30
2022-10-28T13:55:27.087Z,1.20
2022-10-28T13:58:03.385Z,1.85
2022-10-28T14:00:30.083Z,1.52
2022-10-28T14:03:17.106Z,2.00
2022-10-28T14:05:43.922Z,1.35
2022-10-28T14:08:22.058Z,2.08
2022-10-28T14:11:08.657Z,1.45
2022-10-28T14:13:47.446Z,1.42
2022-10-28T14:16:29.912Z,1.30
2022-10-28T14:19:02.111Z,1.30
2022-10-28T14:22:02.391Z,1.67
2022-10-28T14:24:49.798Z,2.55
2022-10-28T14:27:18.080Z,1.75
2022-10-28T14:29:54.702Z,1.80
2022-10-28T14:32:33.782Z,1.63
2022-10-28T14:35:05.702Z,1.50
2022-10-28T14:37:38.188Z,1.80
2022-10-28T14:40:33.524Z,1.65
2022-10-28T14:43:16.492Z,1.75
2022-10-28T14:46:15.127Z,1.60
2022-10-28T14:48:52.112Z,1.58
2022-10-28T14:51:21.922Z,2.20
2022-10-28T14:53:52.936Z,1.80
2022-10-28T14:56:24.614Z,2.08
2022-10-28T14:58:53.864Z,1.85
2022-10-28T15:01:26.141Z,1.63
2022-10-28T15:04:02.356Z,1.70
2022-10-28T15:06:37.303Z,1.60
2022-10-28T15:09:25.192Z,1.35
2022-10-28T15:12:00.383Z,1.70
2022-10-28T15:14:40.557Z,1.60
2022-10-28T15:17:25.484Z,1.80
2022-10-28T15:20:00.499Z,1.67
2022-10-28T15:22:33.218Z,1.42
2022-10-28T15:25:14.811Z,2.00
2022-10-28T15:27:43.561Z,2.03
2022-10-28T15:30:15.570Z,2.03
2022-10-28T15:32:42.267Z,2.05
2022-10-28T15:35:30.468Z,2.35
2022-10-28T15:38:00.323Z,2.40
2022-10-28T15:40:29.837Z,2.42
2022-10-28T15:43:10.121Z,2.00
2022-10-28T15:45:42.206Z,2.65
2022-10-28T15:48:14.773Z,2.67
2022-10-28T15:50:41.822Z,3.17
2022-10-28T15:53:11.520Z,3.13
2022-10-28T15:56:06.966Z,2.72
2022-10-28T15:58:31.294Z,3.60
2022-10-28T16:00:58.579Z,4.93
2022-10-28T16:03:48.557Z,3.08
2022-10-28T16:06:28.784Z,3.30
2022-10-28T16:09:03.180Z,4.80
2022-10-28T16:11:31.309Z,4.85
2022-10-28T16:13:58.574Z,5.35
2022-10-28T16:19:06.429Z,4.38
2022-10-28T16:21:33.806Z,2.95
2022-10-28T16:24:00.564Z,2.83
2022-10-28T16:26:28.519Z,2.88
2022-10-28T16:28:55.259Z,3.15
2022-10-28T16:31:24.983Z,4.32
2022-10-28T16:33:51.768Z,5.13
2022-10-28T16:36:18.552Z,5.07
2022-10-28T16:38:45.228Z,3.83
2022-10-28T16:41:19.376Z,4.15
2022-10-28T16:43:46.347Z,5.45
2022-10-28T16:46:13.825Z,7.22
2022-10-28T16:48:41.237Z,6.00
2022-10-28T16:51:15.171Z,4.80
2022-10-28T16:53:46.849Z,4.28
2022-10-28T16:56:16.944Z,4.85
2022-10-28T16:58:43.948Z,3.63
2022-10-28T17:01:11.531Z,3.80
2022-10-28T17:03:38.372Z,3.95
2022-10-28T17:06:05.199Z,4.20
2022-10-28T17:09:00.781Z,3.70
2022-10-28T17:11:18.842Z,3.15
2022-10-28T17:13:45.581Z,3.58
2022-10-28T17:16:12.885Z,7.18
2022-10-28T17:18:40.086Z,10.02
2022-10-28T17:21:06.762Z,14.85
2022-10-28T17:23:33.471Z,10.85
2022-10-28T17:26:02.163Z,10.65
2022-10-28T17:28:28.978Z,8.35
2022-10-28T17:31:03.473Z,6.20
2022-10-28T17:33:30.269Z,6.45
2022-10-28T17:36:01.530Z,5.97
2022-10-28T17:38:29.744Z,5.75
2022-10-28T17:40:57.119Z,5.80
2022-10-28T17:43:24.619Z,5.35
2022-10-28T17:45:51.689Z,5.25
2022-10-28T17:48:18.411Z,3.92
2022-10-28T17:50:52.883Z,7.80
2022-10-28T17:53:20.140Z,6.70
2022-10-28T17:58:21.444Z,4.75
2022-10-28T18:00:48.111Z,5.15
2022-10-28T18:03:14.772Z,5.35
2022-10-28T18:05:41.566Z,5.00
2022-10-28T18:08:08.231Z,5.45
2022-10-28T18:10:34.912Z,4.47
2022-10-28T18:13:01.572Z,11.18
2022-10-28T18:15:28.259Z,7.88
2022-10-28T18:17:54.917Z,9.07
2022-10-28T18:20:21.595Z,4.47
2022-10-28T18:22:48.261Z,4.60
2022-10-28T18:25:14.936Z,6.15
2022-10-28T18:27:41.600Z,7.63
2022-10-28T18:30:08.920Z,6.43
2022-10-28T18:35:02.182Z,5.15
2022-10-28T18:37:28.847Z,5.25
2022-10-28T18:39:55.504Z,4.95
2022-10-28T18:42:22.301Z,5.63
2022-10-28T18:44:49.079Z,4.90
2022-10-28T18:47:15.751Z,6.97
2022-10-28T18:49:45.346Z,5.50
2022-10-28T18:52:12.028Z,6.32
2022-10-28T18:54:38.668Z,6.18
2022-10-28T18:57:05.314Z,4.97
2022-10-28T18:59:31.998Z,4.93
2022-10-28T19:01:58.764Z,4.97
2022-10-28T19:04:25.537Z,5.18
2022-10-28T19:06:52.209Z,5.32
2022-10-28T19:09:18.891Z,4.90
2022-10-28T19:11:45.596Z,4.60
2022-10-28T19:14:12.287Z,4.45
2022-10-28T19:16:38.942Z,5.55
2022-10-28T19:19:06.052Z,4.95
2022-10-28T19:21:33.279Z,5.25
2022-10-28T19:24:00.029Z,5.03
2022-10-28T19:26:27.693Z,9.02
2022-10-28T19:28:54.401Z,7.50
2022-10-28T19:31:24.142Z,5.80
2022-10-28T19:33:52.429Z,4.60
2022-10-28T19:36:21.609Z,5.05
2022-10-28T19:38:49.674Z,5.70
2022-10-28T19:41:19.419Z,5.35
2022-10-28T19:43:46.507Z,5.28
2022-10-28T19:46:17.107Z,4.50
2022-10-28T19:48:46.680Z,4.18
2022-10-28T19:51:15.913Z,4.50
2022-10-28T19:53:51.049Z,4.38
2022-10-28T19:56:19.465Z,4.45
2022-10-28T19:58:53.159Z,4.93
2022-10-28T20:01:21.538Z,4.95
2022-10-28T20:03:50.805Z,4.20
2022-10-28T20:06:20.526Z,4.97
2022-10-28T20:08:48.034Z,6.65
2022-10-28T20:11:21.374Z,4.10
2022-10-28T20:13:53.207Z,4.07
2022-10-28T20:16:20.146Z,3.40
2022-10-28T20:18:46.867Z,2.90
2022-10-28T20:21:18.383Z,3.17
2022-10-28T20:23:47.575Z,3.40
2022-10-28T20:26:14.286Z,3.58
2022-10-28T20:28:41.022Z,3.63
2022-10-28T20:31:10.807Z,4.65
2022-10-28T20:33:40.034Z,3.83
2022-10-28T20:36:20.357Z,4.90
2022-10-28T20:38:47.073Z,4.45
2022-10-28T20:41:16.157Z,3.80
2022-10-28T20:43:42.835Z,4.07
2022-10-28T20:46:16.077Z,4.07
2022-10-28T20:48:46.188Z,4.18
2022-10-28T20:51:13.118Z,4.28
2022-10-28T20:53:40.020Z,6.38
2022-10-28T20:56:07.514Z,7.18
2022-10-28T20:58:35.154Z,5.70
2022-10-28T21:01:04.718Z,4.82
2022-10-28T21:03:31.499Z,4.50
2022-10-28T21:05:58.537Z,4.97
2022-10-28T21:08:25.474Z,4.07
2022-10-28T21:10:52.171Z,4.53
2022-10-28T21:13:18.843Z,13.13
2022-10-28T21:15:45.710Z,16.33
2022-10-28T21:18:13.149Z,19.70
2022-10-28T21:20:40.029Z,10.82
2022-10-28T21:23:06.921Z,11.63
2022-10-28T21:25:33.876Z,7.03
2022-10-28T21:28:00.871Z,5.47
2022-10-28T21:30:28.053Z,5.22
2022-10-28T21:32:55.081Z,4.43
2022-10-28T21:35:22.220Z,4.65
2022-10-28T21:37:49.225Z,4.22
2022-10-28T21:40:15.996Z,4.22
2022-10-28T21:42:48.231Z,4.40
2022-10-28T21:45:15.023Z,4.75
2022-10-28T21:47:41.670Z,4.32
2022-10-28T21:50:08.638Z,4.63
2022-10-28T21:52:35.464Z,4.97
2022-10-28T21:55:09.766Z,3.83
2022-10-28T21:57:46.912Z,3.85
2022-10-28T22:00:14.045Z,3.97
2022-10-28T22:02:41.554Z,4.15
2022-10-28T22:05:08.552Z,3.63
2022-10-28T22:07:35.263Z,3.80
2022-10-28T22:10:02.113Z,3.90
2022-10-28T22:12:29.907Z,4.00
2022-10-28T22:14:56.574Z,4.28
2022-10-28T22:17:23.269Z,3.85
2022-10-28T22:19:52.260Z,3.75
2022-10-28T22:22:18.961Z,3.83
2022-10-28T22:24:45.655Z,3.33
2022-10-28T22:27:12.333Z,4.78
2022-10-28T22:29:39.029Z,4.28
2022-10-28T22:32:05.717Z,4.53
2022-10-28T22:34:32.368Z,4.30
2022-10-28T22:36:59.111Z,5.00
2022-10-28T22:39:25.793Z,4.13
2022-10-28T22:41:52.447Z,4.35
2022-10-28T22:44:19.128Z,4.70
2022-10-28T22:46:45.806Z,4.05
2022-10-28T22:49:12.491Z,3.85
2022-10-28T22:51:39.168Z,3.35
2022-10-28T22:54:05.831Z,3.88
2022-10-28T22:56:32.612Z,3.70
2022-10-28T22:59:01.695Z,3.75
2022-10-28T23:01:29.611Z,4.10
2022-10-28T23:03:56.659Z,3.78
2022-10-28T23:06:25.669Z,3.75
2022-10-28T23:08:52.722Z,4.13
2022-10-28T23:11:20.918Z,3.80
2022-10-28T23:13:52.567Z,3.90
2022-10-28T23:16:19.971Z,4.10
2022-10-28T23:18:48.036Z,3.38
2022-10-28T23:21:14.670Z,3.13
2022-10-28T23:23:42.180Z,3.17
2022-10-28T23:26:10.728Z,3.47
2022-10-28T23:28:37.376Z,3.92
2022-10-28T23:31:05.659Z,4.10
2022-10-28T23:33:34.248Z,3.47
2022-10-28T23:36:03.629Z,3.97
2022-10-28T23:38:31.135Z,4.03
2022-10-28T23:41:03.054Z,3.78
2022-10-28T23:43:31.064Z,3.42
2022-10-28T23:45:58.495Z,4.53
2022-10-28T23:48:26.329Z,3.33
2022-10-28T23:50:53.344Z,3.45
2022-10-28T23:53:20.917Z,3.25
2022-10-28T23:55:49.047Z,3.20
2022-10-28T23:58:16.996Z,3.30
